createdAt,value
2023-03-16T00:00:28.913Z,-0.23
2023-03-16T00:03:20.616Z,-0.15
2023-03-16T00:06:06.361Z,1.18
2023-03-16T00:08:52.189Z,-0.18
2023-03-16T00:11:37.653Z,0.05
2023-03-16T00:14:23.031Z,0.47
2023-03-16T00:17:08.724Z,0.02
2023-03-16T00:19:57.174Z,1.05
2023-03-16T00:22:42.522Z,1.11
2023-03-16T00:25:28.000Z,0.76
2023-03-16T00:28:14.082Z,-0.24
2023-03-16T00:30:59.480Z,1.11
2023-03-16T00:33:45.144Z,0.99
2023-03-16T00:36:33.861Z,-0.09
2023-03-16T00:39:19.116Z,0.01
2023-03-16T00:42:05.871Z,1.13
2023-03-16T00:44:57.098Z,-0.11
2023-03-16T00:47:42.519Z,1.00
2023-03-16T00:50:28.715Z,0.09
2023-03-16T00:53:14.232Z,-0.11
2023-03-16T00:56:02.943Z,0.40
2023-03-16T00:58:49.441Z,0.04
2023-03-16T01:01:35.142Z,1.09
2023-03-16T01:04:21.901Z,-0.01
2023-03-16T01:07:11.017Z,-0.30
2023-03-16T01:09:58.219Z,1.07
2023-03-16T01:12:45.486Z,0.47
2023-03-16T01:15:31.133Z,0.93
2023-03-16T01:18:16.564Z,1.11
2023-03-16T01:21:10.413Z,1.06
2023-03-16T01:23:56.109Z,0.14
2023-03-16T01:26:41.654Z,1.06
2023-03-16T01:29:27.246Z,0.52
2023-03-16T01:32:15.029Z,-0.17
2023-03-16T01:35:01.220Z,0.97
2023-03-16T01:37:46.801Z,-0.16
2023-03-16T01:40:35.083Z,0.12
2023-03-16T01:43:24.081Z,0.92
2023-03-16T01:46:24.900Z,1.06
2023-03-16T01:49:17.902Z,1.07
2023-03-16T01:52:10.099Z,-0.31
2023-03-16T01:55:09.027Z,0.97
2023-03-16T01:57:54.919Z,0.58
2023-03-16T02:00:42.098Z,-0.07
2023-03-16T02:03:36.512Z,-0.41
2023-03-16T02:06:34.481Z,0.93
2023-03-16T02:09:20.537Z,0.99
2023-03-16T02:12:07.797Z,0.88
2023-03-16T02:14:58.712Z,0.62
2023-03-16T02:17:46.232Z,0.64
2023-03-16T02:21:13.752Z,0.87
2023-03-16T02:24:02.394Z,-0.71
2023-03-16T02:26:55.074Z,0.84
2023-03-16T02:29:56.582Z,0.87
2023-03-16T02:32:47.128Z,0.17
2023-03-16T02:35:33.758Z,-0.11
2023-03-16T02:38:20.829Z,0.61
2023-03-16T02:41:20.974Z,0.06
2023-03-16T02:44:16.692Z,-0.36
2023-03-16T02:47:20.940Z,-0.30
2023-03-16T02:50:09.968Z,0.77
2023-03-16T02:52:55.573Z,0.71
2023-03-16T02:55:41.702Z,1.06
2023-03-16T02:58:26.816Z,1.20
2023-03-16T03:01:12.221Z,0.82
2023-03-16T03:03:58.582Z,1.21
2023-03-16T03:06:44.239Z,0.74
2023-03-16T03:09:32.276Z,-0.25
2023-03-16T03:12:17.830Z,-0.01
2023-03-16T03:15:03.938Z,-0.19
2023-03-16T03:17:56.535Z,-0.25
2023-03-16T03:20:42.270Z,1.14
2023-03-16T03:23:28.846Z,-0.38
2023-03-16T03:26:15.429Z,0.43
2023-03-16T03:29:02.538Z,0.80
2023-03-16T03:31:47.991Z,1.01
2023-03-16T03:34:34.233Z,0.95
2023-03-16T03:37:19.979Z,0.03
2023-03-16T03:40:06.532Z,0.93
2023-03-16T03:42:52.072Z,0.96
2023-03-16T03:45:37.611Z,1.08
2023-03-16T03:48:24.259Z,-0.06
2023-03-16T03:51:10.001Z,1.26
2023-03-16T03:54:04.174Z,0.10
2023-03-16T03:57:15.729Z,1.33
2023-03-16T04:00:01.252Z,0.21
2023-03-16T04:02:58.853Z,1.18
2023-03-16T04:05:51.948Z,0.88
2023-03-16T04:08:37.679Z,0.14
2023-03-16T04:11:27.103Z,-0.13
2023-03-16T04:14:13.008Z,1.27
2023-03-16T04:16:59.453Z,0.33
2023-03-16T04:19:45.358Z,1.22
2023-03-16T04:22:33.973Z,-0.26
2023-03-16T04:25:19.631Z,-0.04
2023-03-16T04:28:08.238Z,0.29
2023-03-16T04:31:01.933Z,-0.05
2023-03-16T04:33:56.186Z,-0.20
2023-03-16T04:36:42.616Z,1.18
2023-03-16T04:39:29.495Z,0.10
2023-03-16T04:42:15.234Z,1.25
2023-03-16T04:45:01.114Z,-0.16
2023-03-16T04:47:46.573Z,1.25
2023-03-16T04:50:32.735Z,1.16
2023-03-16T04:53:24.330Z,1.20
2023-03-16T04:56:18.498Z,-0.44
2023-03-16T04:59:07.849Z,-0.41
2023-03-16T05:02:23.013Z,1.19
2023-03-16T05:05:09.088Z,0.76
2023-03-16T05:07:57.309Z,1.14
2023-03-16T05:10:47.925Z,1.16
2023-03-16T05:13:34.140Z,0.90
2023-03-16T05:16:19.725Z,0.76
2023-03-16T05:19:05.501Z,0.63
2023-03-16T05:21:53.291Z,1.15
2023-03-16T05:24:39.031Z,1.09
2023-03-16T05:27:24.821Z,0.25
2023-03-16T05:30:13.335Z,1.15
2023-03-16T05:32:59.152Z,1.15
2023-03-16T05:35:51.455Z,1.17
2023-03-16T05:38:39.516Z,0.06
2023-03-16T05:41:28.497Z,1.02
2023-03-16T05:44:29.648Z,-0.26
2023-03-16T05:47:37.798Z,-0.25
2023-03-16T05:50:26.608Z,1.27
2023-03-16T05:53:12.122Z,1.27
2023-03-16T05:56:00.112Z,0.77
2023-03-16T05:58:46.051Z,1.23
2023-03-16T06:01:31.480Z,0.33
2023-03-16T06:04:17.136Z,0.65
2023-03-16T06:07:02.968Z,0.56
2023-03-16T06:09:49.362Z,0.91
2023-03-16T06:12:35.263Z,1.15
2023-03-16T06:15:25.043Z,0.19
2023-03-16T06:18:11.403Z,1.08
2023-03-16T06:20:57.452Z,1.17
2023-03-16T06:23:43.837Z,1.22
2023-03-16T06:26:29.709Z,-0.10
2023-03-16T06:29:15.408Z,1.23
2023-03-16T06:32:01.304Z,1.22
2023-03-16T06:34:48.072Z,-0.23
2023-03-16T06:37:34.271Z,1.28
2023-03-16T06:40:25.300Z,1.05
2023-03-16T06:43:10.821Z,-0.10
2023-03-16T06:45:56.336Z,-1.55
2023-03-16T06:48:42.361Z,0.88
2023-03-16T06:51:28.709Z,1.29
2023-03-16T06:54:14.787Z,1.24
2023-03-16T06:57:01.531Z,0.42
2023-03-16T06:59:47.064Z,1.35
2023-03-16T07:02:35.723Z,0.21
2023-03-16T07:05:22.088Z,0.06
2023-03-16T07:08:10.207Z,1.36
2023-03-16T07:10:55.692Z,1.38
2023-03-16T07:13:41.813Z,-0.11
2023-03-16T07:16:28.550Z,0.82
2023-03-16T07:19:16.712Z,0.02
2023-03-16T07:22:02.921Z,0.51
2023-03-16T07:24:57.227Z,-0.73
2023-03-16T07:27:46.660Z,-0.06
2023-03-16T07:30:37.585Z,1.07
2023-03-16T07:33:23.570Z,-0.58
2023-03-16T07:36:10.698Z,0.96
2023-03-16T07:39:01.956Z,-0.09
2023-03-16T07:41:47.640Z,1.23
2023-03-16T07:44:36.046Z,1.25
2023-03-16T07:47:23.348Z,0.34
2023-03-16T07:50:16.962Z,0.34
2023-03-16T07:53:05.286Z,1.59
2023-03-16T07:55:53.812Z,1.56
2023-03-16T07:58:39.735Z,1.65
2023-03-16T08:01:25.194Z,0.31
2023-03-16T08:04:12.381Z,0.58
2023-03-16T08:07:01.123Z,1.52
2023-03-16T08:09:59.978Z,0.35
2023-03-16T08:12:52.371Z,1.69
2023-03-16T08:15:38.369Z,1.27
2023-03-16T08:18:30.355Z,1.60
2023-03-16T08:21:17.359Z,1.57
2023-03-16T08:24:02.844Z,1.97
2023-03-16T08:26:48.138Z,0.82
2023-03-16T08:29:34.596Z,0.70
2023-03-16T08:32:23.995Z,2.12
2023-03-16T08:35:14.002Z,2.18
2023-03-16T08:37:59.866Z,2.20
2023-03-16T08:40:48.575Z,0.95
2023-03-16T08:43:37.515Z,2.49
2023-03-16T08:46:24.281Z,2.47
2023-03-16T08:49:14.964Z,2.65
2023-03-16T08:52:03.212Z,2.56
2023-03-16T08:55:02.064Z,2.63
2023-03-16T08:57:49.698Z,2.66
2023-03-16T09:00:35.263Z,1.39
2023-03-16T09:03:20.720Z,2.76
2023-03-16T09:06:09.822Z,2.62
2023-03-16T09:08:56.240Z,2.87
2023-03-16T09:11:42.215Z,1.68
2023-03-16T09:14:27.937Z,2.63
2023-03-16T09:17:13.645Z,2.53
2023-03-16T09:20:11.567Z,1.89
2023-03-16T09:23:05.093Z,3.38
2023-03-16T09:25:51.138Z,2.86
2023-03-16T09:28:38.926Z,3.35
2023-03-16T09:31:24.564Z,3.50
2023-03-16T09:34:10.610Z,2.92
2023-03-16T09:36:56.478Z,3.45
2023-03-16T09:39:42.151Z,3.46
2023-03-16T09:42:43.873Z,3.80
2023-03-16T09:45:36.094Z,3.89
2023-03-16T09:48:22.132Z,3.96
2023-03-16T09:51:23.043Z,3.44
2023-03-16T09:54:26.580Z,4.03
2023-03-16T09:57:18.272Z,3.42
2023-03-16T10:00:42.885Z,4.35
2023-03-16T10:03:52.227Z,3.07
2023-03-16T10:06:58.854Z,3.38
2023-03-16T10:10:14.818Z,3.50
2023-03-16T10:13:02.352Z,4.25
2023-03-16T10:15:49.480Z,3.86
2023-03-16T10:18:42.882Z,4.17
2023-03-16T10:21:33.351Z,2.65
2023-03-16T10:24:41.329Z,4.11
2023-03-16T10:27:31.511Z,3.14
2023-03-16T10:30:31.170Z,4.23
2023-03-16T10:33:26.563Z,4.28
2023-03-16T10:36:26.188Z,4.12
2023-03-16T10:39:14.550Z,3.03
2023-03-16T10:42:00.322Z,4.07
2023-03-16T10:45:01.030Z,4.48
2023-03-16T10:47:47.496Z,3.34
2023-03-16T10:50:34.249Z,4.37
2023-03-16T10:53:29.978Z,4.41
2023-03-16T10:56:25.464Z,3.64
2023-03-16T10:59:35.215Z,3.58
2023-03-16T11:02:25.112Z,4.10
2023-03-16T11:05:24.793Z,4.91
2023-03-16T11:08:20.425Z,4.98
2023-03-16T11:11:32.631Z,4.60
2023-03-16T11:14:26.073Z,4.84
2023-03-16T11:17:36.493Z,4.83
2023-03-16T11:20:26.538Z,3.66
2023-03-16T11:23:18.232Z,4.79
2023-03-16T11:26:11.869Z,4.23
2023-03-16T11:29:09.719Z,4.01
2023-03-16T11:32:00.888Z,4.25
2023-03-16T11:34:48.531Z,4.88
2023-03-16T11:37:55.623Z,4.74
2023-03-16T11:40:47.521Z,3.71
2023-03-16T11:43:49.461Z,4.14
2023-03-16T11:46:52.237Z,4.76
2023-03-16T11:49:56.892Z,4.39
2023-03-16T11:53:05.366Z,4.86
2023-03-16T11:55:57.197Z,4.85
2023-03-16T11:58:49.305Z,4.91
2023-03-16T12:02:03.744Z,4.93
2023-03-16T12:04:55.406Z,4.88
2023-03-16T12:08:19.035Z,4.92
2023-03-16T12:11:13.072Z,4.97
2023-03-16T12:14:24.433Z,5.01
2023-03-16T12:17:20.641Z,4.85
2023-03-16T12:20:18.700Z,5.09
2023-03-16T12:23:13.342Z,4.32
2023-03-16T12:26:00.874Z,5.44
2023-03-16T12:28:48.294Z,5.48
2023-03-16T12:32:09.148Z,5.55
2023-03-16T12:35:19.600Z,4.53
2023-03-16T12:38:47.618Z,5.60
2023-03-16T12:41:52.460Z,5.59
2023-03-16T12:44:55.405Z,5.02
2023-03-16T12:48:04.210Z,4.61
2023-03-16T12:50:52.264Z,4.10
2023-03-16T12:53:45.461Z,5.32
2023-03-16T12:56:43.371Z,5.30
2023-03-16T12:59:36.724Z,4.04
2023-03-16T13:02:34.736Z,5.08
2023-03-16T13:05:32.884Z,5.28
2023-03-16T13:08:21.195Z,5.27
2023-03-16T13:11:09.676Z,5.24
2023-03-16T13:14:01.089Z,5.26
2023-03-16T13:16:47.884Z,4.95
2023-03-16T13:19:37.808Z,4.85
2023-03-16T13:22:23.351Z,5.13
2023-03-16T13:25:16.597Z,5.18
2023-03-16T13:28:02.329Z,5.22
2023-03-16T13:30:49.175Z,5.23
2023-03-16T13:33:40.816Z,5.09
2023-03-16T13:36:29.195Z,5.34
2023-03-16T13:39:27.271Z,4.04
2023-03-16T13:42:18.761Z,4.43
2023-03-16T13:45:15.891Z,5.22
2023-03-16T13:48:05.639Z,4.08
2023-03-16T13:50:53.937Z,5.10
2023-03-16T13:53:42.757Z,5.10
2023-03-16T13:56:29.515Z,4.97
2023-03-16T13:59:15.920Z,5.08
2023-03-16T14:02:02.195Z,5.09
2023-03-16T14:04:48.061Z,3.71
2023-03-16T14:07:38.468Z,4.73
2023-03-16T14:10:29.662Z,5.09
2023-03-16T14:13:32.985Z,5.19
2023-03-16T14:16:20.068Z,5.08
2023-03-16T14:19:19.654Z,5.23
2023-03-16T14:22:06.731Z,5.30
2023-03-16T14:24:59.357Z,5.08
2023-03-16T14:27:46.832Z,4.07
2023-03-16T14:30:33.086Z,5.28
2023-03-16T14:33:41.323Z,5.04
2023-03-16T14:36:39.814Z,3.93
2023-03-16T14:39:29.047Z,5.13
2023-03-16T14:42:31.046Z,5.06
2023-03-16T14:45:17.629Z,3.75
2023-03-16T14:48:06.844Z,4.62
2023-03-16T14:50:58.588Z,3.99
2023-03-16T14:53:44.766Z,4.22
2023-03-16T14:56:34.905Z,4.06
2023-03-16T14:59:21.801Z,4.89
2023-03-16T15:02:16.363Z,3.67
2023-03-16T15:05:03.087Z,3.98
2023-03-16T15:07:54.753Z,3.90
2023-03-16T15:10:40.774Z,5.28
2023-03-16T15:13:52.877Z,4.75
2023-03-16T15:16:38.637Z,4.84
2023-03-16T15:19:24.074Z,3.88
2023-03-16T15:22:12.525Z,3.89
2023-03-16T15:25:00.053Z,4.07
2023-03-16T15:27:45.516Z,4.92
2023-03-16T15:30:32.232Z,4.69
2023-03-16T15:33:18.020Z,4.99
2023-03-16T15:36:14.892Z,4.99
2023-03-16T15:39:02.126Z,4.31
2023-03-16T15:41:48.214Z,4.69
2023-03-16T15:44:33.762Z,4.15
2023-03-16T15:47:19.328Z,4.95
2023-03-16T15:50:06.019Z,4.96
2023-03-16T15:52:58.020Z,3.20
2023-03-16T15:55:47.187Z,4.43
2023-03-16T15:58:35.040Z,3.50
2023-03-16T16:01:23.517Z,4.80
2023-03-16T16:04:15.557Z,4.04
2023-03-16T16:07:02.866Z,4.32
2023-03-16T16:09:48.884Z,3.87
2023-03-16T16:12:34.702Z,3.97
2023-03-16T16:15:30.304Z,4.05
2023-03-16T16:18:32.004Z,4.47
2023-03-16T16:21:23.149Z,3.82
2023-03-16T16:24:10.978Z,3.91
2023-03-16T16:26:56.735Z,3.35
2023-03-16T16:29:42.251Z,3.29
2023-03-16T16:32:27.728Z,4.43
2023-03-16T16:35:19.646Z,4.43
2023-03-16T16:38:05.392Z,4.34
2023-03-16T16:40:53.335Z,3.31
2023-03-16T16:43:46.659Z,3.21
2023-03-16T16:48:32.454Z,4.42
2023-03-16T16:51:26.752Z,4.39
2023-03-16T16:54:18.304Z,4.12
2023-03-16T16:57:05.689Z,4.30
2023-03-16T16:59:51.592Z,4.26
2023-03-16T17:02:51.315Z,3.80
2023-03-16T17:05:37.323Z,3.96
2023-03-16T17:08:23.648Z,3.10
2023-03-16T17:11:16.914Z,3.91
2023-03-16T17:14:04.948Z,3.90
2023-03-16T17:16:51.868Z,3.82
2023-03-16T17:19:38.759Z,2.90
2023-03-16T17:22:29.685Z,3.86
2023-03-16T17:25:16.679Z,3.67
2023-03-16T17:28:02.578Z,3.84
2023-03-16T17:30:48.955Z,3.94
2023-03-16T17:33:37.588Z,3.48
2023-03-16T17:36:23.498Z,4.05
2023-03-16T17:39:36.943Z,4.09
2023-03-16T17:42:23.918Z,4.06
2023-03-16T17:45:18.615Z,3.88
2023-03-16T17:48:11.020Z,3.76
2023-03-16T17:50:56.799Z,4.01
2023-03-16T17:53:44.303Z,4.02
2023-03-16T17:56:33.053Z,2.73
2023-03-16T17:59:21.246Z,3.97
2023-03-16T18:02:56.649Z,4.04
2023-03-16T18:05:44.054Z,3.42
2023-03-16T18:08:30.582Z,4.01
2023-03-16T18:11:23.064Z,2.94
2023-03-16T18:14:16.599Z,4.08
2023-03-16T18:17:07.778Z,4.09
2023-03-16T18:19:54.097Z,3.89
2023-03-16T18:22:39.926Z,4.07
2023-03-16T18:25:32.576Z,4.10
2023-03-16T18:28:19.725Z,3.87
2023-03-16T18:31:07.777Z,4.07
2023-03-16T18:33:59.713Z,4.03
2023-03-16T18:36:45.778Z,4.02
2023-03-16T18:39:31.867Z,2.72
2023-03-16T18:42:20.077Z,3.94
2023-03-16T18:45:06.803Z,3.81
2023-03-16T18:47:54.187Z,3.92
2023-03-16T18:50:43.663Z,2.65
2023-03-16T18:53:29.778Z,3.85
2023-03-16T18:56:22.325Z,3.78
2023-03-16T18:59:09.740Z,3.53
2023-03-16T19:01:58.414Z,3.62
2023-03-16T19:04:45.106Z,2.51
2023-03-16T19:07:40.059Z,3.70
2023-03-16T19:10:28.922Z,2.38
2023-03-16T19:13:21.239Z,3.65
2023-03-16T19:16:16.697Z,3.63
2023-03-16T19:19:02.957Z,2.30
2023-03-16T19:21:51.060Z,3.33
2023-03-16T19:24:54.341Z,3.55
2023-03-16T19:27:39.988Z,3.51
2023-03-16T19:30:29.740Z,3.56
2023-03-16T19:33:25.897Z,3.48
2023-03-16T19:36:32.509Z,3.48
2023-03-16T19:39:18.352Z,3.34
2023-03-16T19:42:04.448Z,2.34
2023-03-16T19:44:51.338Z,3.41
2023-03-16T19:47:37.134Z,3.18
2023-03-16T19:50:24.946Z,3.29
2023-03-16T19:53:19.077Z,3.30
2023-03-16T19:56:05.226Z,3.09
2023-03-16T19:58:53.645Z,3.12
2023-03-16T20:01:39.860Z,3.16
2023-03-16T20:04:27.532Z,3.20
2023-03-16T20:07:17.161Z,3.15
2023-03-16T20:10:02.722Z,2.66
2023-03-16T20:12:51.413Z,3.06
2023-03-16T20:15:37.622Z,1.78
2023-03-16T20:18:23.695Z,2.85
2023-03-16T20:21:15.407Z,3.04
2023-03-16T20:24:01.637Z,2.99
2023-03-16T20:26:51.406Z,2.75
2023-03-16T20:29:37.655Z,1.91
2023-03-16T20:32:56.595Z,2.87
2023-03-16T20:35:41.888Z,1.51
2023-03-16T20:38:27.276Z,2.80
2023-03-16T20:41:28.542Z,2.73
2023-03-16T20:44:26.828Z,2.66
2023-03-16T20:47:19.350Z,2.46
2023-03-16T20:50:06.205Z,2.56
2023-03-16T20:52:53.641Z,2.54
2023-03-16T20:55:41.087Z,2.61
2023-03-16T20:58:36.025Z,2.64
2023-03-16T21:01:24.737Z,2.51
2023-03-16T21:04:21.063Z,2.50
2023-03-16T21:07:07.005Z,1.36
2023-03-16T21:09:52.813Z,1.79
2023-03-16T21:12:44.326Z,2.29
2023-03-16T21:15:32.281Z,2.46
2023-03-16T21:18:20.667Z,2.41
2023-03-16T21:21:06.530Z,2.18
2023-03-16T21:23:52.275Z,2.22
2023-03-16T21:26:40.124Z,2.10
2023-03-16T21:29:26.302Z,0.91
2023-03-16T21:32:24.290Z,1.94
2023-03-16T21:35:15.635Z,1.92
2023-03-16T21:38:07.376Z,1.92
2023-03-16T21:40:52.887Z,1.63
2023-03-16T21:43:39.584Z,1.90
2023-03-16T21:46:26.453Z,1.71
2023-03-16T21:49:12.145Z,1.07
2023-03-16T21:51:57.854Z,0.81
2023-03-16T21:54:43.231Z,1.08
2023-03-16T21:57:28.856Z,1.74
2023-03-16T22:00:29.501Z,1.54
2023-03-16T22:03:50.400Z,1.43
2023-03-16T22:06:37.685Z,1.33
2023-03-16T22:09:24.958Z,1.17
2023-03-16T22:12:11.801Z,1.05
2023-03-16T22:14:57.423Z,0.88
2023-03-16T22:17:42.888Z,0.82
2023-03-16T22:20:28.876Z,0.89
2023-03-16T22:23:30.209Z,0.90
2023-03-16T22:26:19.201Z,0.87
2023-03-16T22:29:18.071Z,0.85
2023-03-16T22:32:08.512Z,0.79
2023-03-16T22:34:56.634Z,0.99
2023-03-16T22:37:42.286Z,1.13
2023-03-16T22:40:35.574Z,0.15
2023-03-16T22:43:35.344Z,1.07
2023-03-16T22:46:24.004Z,1.02
2023-03-16T22:49:20.176Z,-0.33
2023-03-16T22:52:06.207Z,-0.36
2023-03-16T22:54:51.420Z,-0.05
2023-03-16T22:57:37.044Z,0.65
2023-03-16T23:00:23.087Z,0.92
2023-03-16T23:03:20.869Z,0.00
2023-03-16T23:06:09.077Z,0.90
2023-03-16T23:08:55.541Z,0.96
2023-03-16T23:11:43.590Z,0.84
2023-03-16T23:14:32.862Z,0.80
2023-03-16T23:17:22.249Z,0.94
2023-03-16T23:20:32.700Z,0.98
2023-03-16T23:23:19.376Z,0.62
2023-03-16T23:26:14.689Z,-0.14
2023-03-16T23:29:00.685Z,0.94
2023-03-16T23:31:47.524Z,0.60
2023-03-16T23:34:32.876Z,0.92
2023-03-16T23:37:18.344Z,1.05
2023-03-16T23:40:04.233Z,-0.32
2023-03-16T23:42:50.138Z,1.04
2023-03-16T23:45:44.750Z,0.95
2023-03-16T23:48:31.687Z,0.89
2023-03-16T23:51:46.894Z,1.02
2023-03-16T23:54:32.803Z,1.04
2023-03-16T23:57:18.203Z,0.90
